Chicago, Illinois
Traffic Map
Current Weather Conditions
Chicago, Illinois
Few Clouds
Few Clouds
68°
Feels Like: 68°
Wind Chill: 68° Ceiling: Unl
Heat Index: 68° Visibility: 10mi
Dew Point: 47° Wind: 9mph
Humidity: 47% Direction: 40° (NE)
Pressure: 30.14in Gusts: 0mph
Raw Report DataKMDW 282353Z 04008KT 10SM FEW040 20/08 A3014 RMK AO2 SLP200 T02000083 10217 20194 58008
Traffic Incident Summary
Active as of:
Severity:
Category:
InformationThere was an issue retrieving the traffic information for this location. Please try a different location or try again shortly.
Advertisements
Track Severe Weather on mobile